Time;durP1;ratioP1;P1;durP2;ratioP2;P2;SDS_P1;SDS_P2;PMS_P1;PMS_P2;Temp;Humidity;BMP_temperature;BMP_pressure;BME280_temperature;BME280_humidity;BME280_pressure;Samples;Min_cycle;Max_cycle;Signal;HPM_P1;HPM_P2
2024/02/17 00:01:47;;;;;;;15.70;4.70;;;;;;;8.19;100.00;102361.44;5029163;28;20188;-71
2024/02/17 00:04:13;;;;;;;19.80;4.23;;;;;;;8.48;100.00;102406.81;5028426;28;20202;-71
2024/02/17 00:06:38;;;;;;;19.47;5.07;;;;;;;8.55;100.00;102404.38;5029468;28;20570;-72
2024/02/17 00:09:03;;;;;;;15.77;5.10;;;;;;;8.46;100.00;102415.97;5028379;28;20578;-71
2024/02/17 00:11:29;;;;;;;15.13;4.83;;;;;;;8.07;100.00;102338.53;5030826;28;20608;-71
2024/02/17 00:13:54;;;;;;;17.10;5.80;;;;;;;8.62;100.00;102424.22;5031134;28;20594;-71
2024/02/17 00:16:20;;;;;;;18.60;5.30;;;;;;;7.62;100.00;102275.13;5032755;28;20191;-71
2024/02/17 00:18:45;;;;;;;17.37;4.87;;;;;;;8.24;100.00;102388.53;5032903;28;20208;-71
2024/02/17 00:21:11;;;;;;;19.60;4.83;;;;;;;8.03;100.00;102351.34;5043482;28;20217;-71
2024/02/17 00:23:36;;;;;;;21.30;5.20;;;;;;;8.55;100.00;102439.16;5028282;28;20200;-71
2024/02/17 00:26:02;;;;;;;20.60;5.07;;;;;;;8.26;100.00;102424.00;5034902;28;20249;-71
2024/02/17 00:28:28;;;;;;;16.87;5.43;;;;;;;8.44;100.00;102423.28;5029011;28;20190;-71
2024/02/17 00:30:53;;;;;;;15.73;5.10;;;;;;;8.41;100.00;102448.47;5029327;28;20864;-71
2024/02/17 00:33:19;;;;;;;14.23;5.07;;;;;;;8.52;100.00;102458.16;5020679;28;20442;-71
2024/02/17 00:35:45;;;;;;;15.37;5.60;;;;;;;7.67;100.00;102336.97;5027690;28;20295;-71
2024/02/17 00:38:10;;;;;;;12.30;4.90;;;;;;;8.52;100.00;102453.66;5031720;28;20434;-71
2024/02/17 00:40:36;;;;;;;16.97;5.30;;;;;;;8.42;100.00;102450.19;5028726;28;20230;-71
2024/02/17 00:43:02;;;;;;;16.60;4.83;;;;;;;8.50;100.00;102462.81;5030335;28;20196;-71
2024/02/17 00:45:27;;;;;;;14.47;5.20;;;;;;;8.34;100.00;102458.06;5032987;28;20286;-71
2024/02/17 00:47:53;;;;;;;16.20;4.80;;;;;;;8.42;100.00;102474.25;5021919;28;20446;-71
2024/02/17 00:50:18;;;;;;;15.80;4.47;;;;;;;8.18;100.00;102429.22;5027937;28;20196;-72
2024/02/17 00:52:43;;;;;;;15.33;5.00;;;;;;;8.45;100.00;102473.13;5031087;28;20565;-71
2024/02/17 00:55:10;;;;;;;15.17;4.77;;;;;;;8.09;100.00;102427.41;5029415;28;20187;-72
2024/02/17 00:57:36;;;;;;;17.10;4.50;;;;;;;7.65;100.00;102344.25;5031294;28;21156;-71
2024/02/17 01:00:03;;;;;;;17.03;5.23;;;;;;;7.46;100.00;102345.97;5042912;28;20985;-72
2024/02/17 01:02:32;;;;;;;18.07;4.50;;;;;;;8.31;100.00;102483.25;5030843;28;20597;-72
2024/02/17 01:04:59;;;;;;;17.23;4.80;;;;;;;8.19;100.00;102476.38;5028380;28;20441;-71
2024/02/17 01:07:24;;;;;;;13.50;4.70;;;;;;;8.05;100.00;102448.25;5022971;28;20437;-71
2024/02/17 01:09:50;;;;;;;19.60;4.30;;;;;;;8.22;100.00;102502.81;5024932;28;20990;-72
2024/02/17 01:12:18;;;;;;;16.07;4.47;;;;;;;8.28;100.00;102501.41;5028704;28;20194;-71
2024/02/17 01:14:43;;;;;;;20.70;4.93;;;;;;;7.21;100.00;102312.69;5027124;28;20184;-71
2024/02/17 01:17:08;;;;;;;14.60;4.40;;;;;;;7.52;100.00;102397.97;5030649;28;20427;-71
2024/02/17 01:19:34;;;;;;;13.50;4.30;;;;;;;8.12;100.00;102477.91;5022824;28;20212;-71
2024/02/17 01:21:59;;;;;;;14.60;4.37;;;;;;;8.26;100.00;102514.91;5033028;28;20239;-72
2024/02/17 01:24:25;;;;;;;15.70;3.90;;;;;;;7.79;100.00;102423.94;5025134;28;20247;-71
2024/02/17 01:26:50;;;;;;;15.17;4.77;;;;;;;8.32;100.00;102505.47;5044375;28;20184;-71
2024/02/17 01:29:18;;;;;;;16.70;4.37;;;;;;;7.56;100.00;102388.69;5027859;28;20207;-71
2024/02/17 01:31:44;;;;;;;13.87;4.70;;;;;;;7.76;100.00;102421.56;5024403;28;20190;-72
2024/02/17 01:34:10;;;;;;;13.23;3.63;;;;;;;7.32;100.00;102338.38;5024298;28;20576;-72
2024/02/17 01:36:35;;;;;;;14.00;3.67;;;;;;;8.25;100.00;102496.34;5026083;28;20195;-71
2024/02/17 01:39:01;;;;;;;10.77;2.60;;;;;;;8.01;100.00;102467.38;5031141;28;20289;-71
2024/02/17 01:41:26;;;;;;;11.13;3.00;;;;;;;8.22;100.00;102493.97;5028643;28;20674;-72
2024/02/17 01:43:52;;;;;;;15.37;3.33;;;;;;;7.27;100.00;102356.66;5023868;28;20243;-71
2024/02/17 01:46:17;;;;;;;13.63;2.47;;;;;;;7.79;100.00;102431.97;5027815;28;20575;-71
2024/02/17 01:48:43;;;;;;;12.93;2.57;;;;;;;8.43;100.00;102515.19;5025397;28;20810;-71
2024/02/17 01:51:11;;;;;;;13.90;2.50;;;;;;;7.95;100.00;102419.84;5029544;28;20202;-72
2024/02/17 01:53:38;;;;;;;10.40;2.30;;;;;;;8.53;100.00;102524.03;5027463;28;20463;-72
2024/02/17 01:56:06;;;;;;;13.00;3.03;;;;;;;8.29;100.00;102508.44;5026550;28;20454;-71
2024/02/17 01:58:31;;;;;;;10.90;2.67;;;;;;;8.14;100.00;102483.97;5024207;28;20449;-71
2024/02/17 02:00:57;;;;;;;11.73;3.20;;;;;;;8.29;100.00;102525.31;5025504;28;20565;-71
2024/02/17 02:03:23;;;;;;;16.13;3.20;;;;;;;8.27;100.00;102535.28;5025532;28;20234;-72
2024/02/17 02:05:51;;;;;;;14.60;3.10;;;;;;;7.75;100.00;102411.00;5027622;28;20979;-72
2024/02/17 02:08:16;;;;;;;12.20;3.00;;;;;;;8.57;100.00;102538.81;5028857;28;20561;-71
2024/02/17 02:10:45;;;;;;;15.13;3.27;;;;;;;8.24;100.00;102473.25;5026830;28;20453;-71
2024/02/17 02:13:10;;;;;;;12.80;3.17;;;;;;;7.45;100.00;102346.94;5031999;28;20203;-71
2024/02/17 02:15:45;;;;;;;16.07;3.60;;;;;;;8.34;100.00;102549.78;5025453;28;21506;-71
2024/02/17 02:18:10;;;;;;;11.40;3.57;;;;;;;8.37;100.00;102567.38;5029869;28;20180;-72
2024/02/17 02:20:37;;;;;;;15.43;3.60;;;;;;;8.08;100.00;102520.13;5028993;28;20481;-71
2024/02/17 02:23:03;;;;;;;14.27;3.33;;;;;;;7.71;100.00;102479.91;5032889;28;20199;-71
2024/02/17 02:25:29;;;;;;;15.97;3.67;;;;;;;8.02;100.00;102520.69;5030599;28;20460;-72
2024/02/17 02:27:55;;;;;;;15.93;3.90;;;;;;;8.29;100.00;102567.25;5024825;28;20784;-71
2024/02/17 02:30:22;;;;;;;15.13;4.37;;;;;;;8.19;100.00;102561.91;5030872;28;20226;-71
2024/02/17 02:32:47;;;;;;;14.80;4.17;;;;;;;7.79;100.00;102489.91;5034635;28;20482;-71
2024/02/17 02:35:13;;;;;;;15.37;4.30;;;;;;;7.63;100.00;102453.88;5023091;28;21178;-71
2024/02/17 02:37:39;;;;;;;19.33;4.57;;;;;;;8.21;100.00;102543.88;5025540;28;20776;-71
2024/02/17 02:40:05;;;;;;;14.40;4.80;;;;;;;8.17;100.00;102537.16;5029647;28;20238;-71
2024/02/17 02:42:30;;;;;;;14.67;4.50;;;;;;;7.97;100.00;102532.78;5029896;28;20674;-71
2024/02/17 02:44:56;;;;;;;16.23;4.63;;;;;;;7.87;100.00;102514.09;5027652;28;20469;-71
2024/02/17 02:47:21;;;;;;;16.73;4.60;;;;;;;8.25;100.00;102597.94;5028524;28;20180;-71
2024/02/17 02:49:47;;;;;;;21.13;5.20;;;;;;;8.29;100.00;102573.44;5031843;28;20281;-72
2024/02/17 02:52:15;;;;;;;12.73;4.47;;;;;;;8.05;100.00;102538.28;5030397;28;20249;-71
2024/02/17 02:54:40;;;;;;;19.07;4.73;;;;;;;7.79;100.00;102490.75;5029781;28;20195;-71
2024/02/17 02:57:06;;;;;;;16.93;4.23;;;;;;;8.35;100.00;102588.06;5030242;28;20954;-71
2024/02/17 02:59:31;;;;;;;14.73;3.40;;;;;;;7.97;100.00;102554.16;5025472;28;20957;-71
2024/02/17 03:01:57;;;;;;;14.23;2.83;;;;;;;8.22;100.00;102572.31;5047141;28;20254;-72
2024/02/17 03:04:22;;;;;;;15.20;4.10;;;;;;;7.96;100.00;102544.47;5027904;28;20188;-71
2024/02/17 03:06:48;;;;;;;12.23;3.30;;;;;;;7.44;100.00;102438.72;5026225;28;20662;-72
2024/02/17 03:09:13;;;;;;;14.67;2.97;;;;;;;7.44;100.00;102457.41;5031038;28;20595;-72
2024/02/17 03:11:39;;;;;;;11.00;3.40;;;;;;;8.28;100.00;102611.84;5031599;28;20638;-72
2024/02/17 03:14:06;;;;;;;11.60;3.30;;;;;;;8.23;100.00;102597.22;5029579;28;20226;-72
2024/02/17 03:16:31;;;;;;;14.43;3.67;;;;;;;7.95;100.00;102532.91;5031547;28;20195;-72
2024/02/17 03:18:56;;;;;;;8.40;2.50;;;;;;;8.27;100.00;102602.13;5037699;28;20463;-71
2024/02/17 03:21:22;;;;;;;8.10;2.27;;;;;;;8.11;100.00;102577.81;5022711;28;20219;-71
2024/02/17 03:23:47;;;;;;;8.00;2.10;;;;;;;7.36;100.00;102469.75;5027359;28;20341;-71
2024/02/17 03:26:13;;;;;;;9.40;2.33;;;;;;;8.26;100.00;102608.47;5032738;28;20180;-72
2024/02/17 03:28:38;;;;;;;8.30;1.97;;;;;;;8.44;100.00;102635.38;5047512;28;20179;-72
2024/02/17 03:31:05;;;;;;;9.03;2.50;;;;;;;7.59;100.00;102578.00;5027913;28;20250;-71
2024/02/17 03:33:30;;;;;;;7.67;1.50;;;;;;;8.15;100.00;102651.38;5034485;28;20258;-72
2024/02/17 03:35:56;;;;;;;7.37;1.60;;;;;;;7.85;100.00;102589.03;5027465;28;20445;-72
2024/02/17 03:38:21;;;;;;;9.17;1.83;;;;;;;8.00;100.00;102658.09;5028653;28;20651;-71
2024/02/17 03:40:47;;;;;;;11.17;2.20;;;;;;;7.71;100.00;102618.78;5032379;28;20204;-72
2024/02/17 03:43:12;;;;;;;16.57;2.50;;;;;;;7.66;100.00;102587.13;5032642;28;20202;-71
2024/02/17 03:45:38;;;;;;;13.07;2.80;;;;;;;8.01;100.00;102671.31;5030985;28;20192;-71
2024/02/17 03:48:04;;;;;;;10.77;2.40;;;;;;;7.53;100.00;102604.41;5030586;28;20411;-72
2024/02/17 03:50:29;;;;;;;6.77;1.47;;;;;;;7.98;100.00;102700.97;5030644;28;20200;-72
2024/02/17 03:52:55;;;;;;;7.47;1.70;;;;;;;7.84;100.00;102669.28;5029716;28;21007;-72
2024/02/17 03:55:20;;;;;;;8.40;1.43;;;;;;;7.89;100.00;102707.97;5035694;28;20188;-72
2024/02/17 03:57:45;;;;;;;7.70;1.30;;;;;;;7.37;100.00;102597.72;5030785;28;20230;-72
2024/02/17 04:00:13;;;;;;;4.93;0.87;;;;;;;7.58;100.00;102648.44;5032470;28;20208;-71
2024/02/17 04:02:40;;;;;;;7.60;0.90;;;;;;;7.76;100.00;102699.38;5031313;28;20560;-72
2024/02/17 04:05:07;;;;;;;6.60;0.97;;;;;;;7.97;100.00;102696.63;5032892;28;20442;-72
2024/02/17 04:07:33;;;;;;;6.00;1.00;;;;;;;6.82;100.00;102559.84;5033009;28;20434;-71
2024/02/17 04:09:59;;;;;;;5.97;0.90;;;;;;;7.61;100.00;102684.69;5027248;28;20914;-71
2024/02/17 04:12:24;;;;;;;4.97;0.80;;;;;;;7.57;100.00;102684.09;5033100;28;20203;-72
2024/02/17 04:14:50;;;;;;;5.90;0.70;;;;;;;7.51;100.00;102673.97;5032407;28;20191;-72
2024/02/17 04:17:15;;;;;;;5.13;0.60;;;;;;;7.70;100.00;102750.66;5029801;28;20207;-72
2024/02/17 04:19:40;;;;;;;7.07;0.80;;;;;;;7.48;100.00;102739.16;5034921;28;20215;-72
2024/02/17 04:22:06;;;;;;;3.43;0.60;;;;;;;7.19;100.00;102690.09;5031926;28;20200;-72
2024/02/17 04:24:31;;;;;;;5.00;0.77;;;;;;;7.67;100.00;102769.63;5027724;28;20197;-72
2024/02/17 04:26:57;;;;;;;5.27;0.90;;;;;;;7.08;100.00;102735.53;5027335;28;23528;-71
2024/02/17 04:29:22;;;;;;;4.20;0.70;;;;;;;7.34;100.00;102768.00;5028820;28;20196;-72
2024/02/17 04:31:48;;;;;;;5.33;0.70;;;;;;;7.40;100.00;102767.47;5027840;28;20188;-72
2024/02/17 04:34:14;;;;;;;4.27;0.70;;;;;;;6.78;100.00;102665.94;5034185;28;20180;-72
2024/02/17 04:36:39;;;;;;;3.80;0.60;;;;;;;7.09;100.00;102694.50;5034270;28;20715;-72
2024/02/17 04:39:05;;;;;;;6.97;0.77;;;;;;;7.56;100.00;102783.91;5031020;28;20520;-72
2024/02/17 04:41:30;;;;;;;5.10;0.80;;;;;;;7.10;100.00;102722.91;5023278;28;20203;-72
2024/02/17 04:43:56;;;;;;;4.57;0.70;;;;;;;7.10;100.00;102757.59;5031907;28;20236;-72
2024/02/17 04:46:21;;;;;;;6.60;0.73;;;;;;;6.96;100.00;102756.06;5024699;28;20598;-72
2024/02/17 04:48:49;;;;;;;5.87;0.90;;;;;;;6.71;100.00;102707.47;5042893;28;20187;-71
2024/02/17 04:51:14;;;;;;;6.90;1.07;;;;;;;7.25;100.00;102807.00;5029801;28;20226;-71
2024/02/17 04:53:40;;;;;;;6.00;0.90;;;;;;;6.53;100.00;102656.47;5029770;28;20852;-71
2024/02/17 04:56:06;;;;;;;5.53;0.70;;;;;;;7.51;100.00;102809.31;5029573;28;20188;-71
2024/02/17 04:58:31;;;;;;;5.13;0.77;;;;;;;7.31;100.00;102766.44;5032078;28;20245;-72
2024/02/17 05:00:56;;;;;;;5.47;0.97;;;;;;;6.85;100.00;102759.63;5033862;28;20218;-71
2024/02/17 05:03:22;;;;;;;5.27;1.00;;;;;;;7.18;100.00;102803.16;5026088;28;20188;-72
2024/02/17 05:05:47;;;;;;;10.33;1.43;;;;;;;7.16;100.00;102797.94;5026282;28;20216;-72
2024/02/17 05:08:13;;;;;;;6.87;1.20;;;;;;;7.20;100.00;102809.22;5031231;28;20266;-71
2024/02/17 05:10:39;;;;;;;6.93;0.80;;;;;;;7.36;100.00;102820.31;5029755;28;20211;-72
2024/02/17 05:13:04;;;;;;;7.10;1.10;;;;;;;7.41;100.00;102827.94;5031528;28;20202;-72
2024/02/17 05:15:30;;;;;;;4.93;0.80;;;;;;;7.32;100.00;102808.19;5027680;28;20239;-71
2024/02/17 05:17:55;;;;;;;5.60;0.97;;;;;;;7.06;100.00;102765.03;5029018;28;20219;-71
2024/02/17 05:20:21;;;;;;;6.70;1.20;;;;;;;7.04;100.00;102769.63;5028743;28;20216;-72
2024/02/17 05:22:46;;;;;;;5.40;1.10;;;;;;;6.98;100.00;102776.31;5023226;28;20678;-72
2024/02/17 05:25:12;;;;;;;6.10;1.10;;;;;;;7.32;100.00;102840.22;5031644;28;20207;-71
2024/02/17 05:27:37;;;;;;;10.63;1.77;;;;;;;7.37;100.00;102866.53;5029426;28;20195;-72
2024/02/17 05:30:03;;;;;;;5.53;1.37;;;;;;;7.09;100.00;102766.56;5044449;28;20338;-72
2024/02/17 05:32:29;;;;;;;7.73;1.43;;;;;;;7.47;100.00;102816.72;5029367;28;20601;-72
2024/02/17 05:34:54;;;;;;;5.97;1.30;;;;;;;7.65;100.00;102849.03;5026857;28;20489;-71
2024/02/17 05:37:20;;;;;;;6.53;0.90;;;;;;;7.22;100.00;102820.63;5028673;28;20200;-71
2024/02/17 05:39:46;;;;;;;7.20;0.93;;;;;;;7.23;100.00;102830.31;5025757;28;20215;-72
2024/02/17 05:42:12;;;;;;;8.40;1.80;;;;;;;7.36;100.00;102875.53;5027829;28;20188;-71
2024/02/17 05:44:37;;;;;;;6.40;1.00;;;;;;;7.31;100.00;102832.34;5025587;28;20504;-70
2024/02/17 05:47:03;;;;;;;6.77;1.20;;;;;;;7.38;100.00;102878.91;5026165;28;20480;-71
2024/02/17 05:49:28;;;;;;;8.60;1.20;;;;;;;7.42;100.00;102878.53;5026421;28;20212;-72
2024/02/17 05:51:56;;;;;;;7.27;1.20;;;;;;;6.57;100.00;102750.41;5027521;28;20197;-71
2024/02/17 05:54:22;;;;;;;7.63;1.30;;;;;;;7.40;100.00;102903.66;5043142;28;20235;-72
2024/02/17 05:56:49;;;;;;;9.83;1.20;;;;;;;7.24;100.00;102899.59;5024010;28;20942;-72
2024/02/17 05:59:14;;;;;;;11.60;1.33;;;;;;;7.02;100.00;102887.16;5024468;28;20473;-71
2024/02/17 06:01:41;;;;;;;10.40;1.17;;;;;;;7.03;100.00;102885.34;5014074;28;20454;-71
2024/02/17 06:04:07;;;;;;;7.00;1.10;;;;;;;6.81;100.00;102845.38;5029243;28;20187;-72
2024/02/17 06:06:33;;;;;;;9.37;1.80;;;;;;;7.07;100.00;102892.13;5026919;28;20457;-71
2024/02/17 06:08:58;;;;;;;4.57;0.90;;;;;;;6.77;100.00;102848.31;5029756;28;20439;-71
2024/02/17 06:11:24;;;;;;;6.40;0.90;;;;;;;7.15;100.00;102895.00;5027021;28;21014;-71
2024/02/17 06:13:49;;;;;;;7.53;0.93;;;;;;;7.12;100.00;102934.47;5027525;28;20697;-71
2024/02/17 06:16:18;;;;;;;6.07;1.00;;;;;;;7.12;100.00;102902.44;5023864;28;20650;-71
2024/02/17 06:21:28;;;;;;;6.47;0.97;;;;;;;6.28;100.00;102827.41;5026647;28;20940;-72
2024/02/17 06:23:55;;;;;;;7.50;0.97;;;;;;;6.89;100.00;102930.97;5025995;28;20459;-71
2024/02/17 06:26:25;;;;;;;4.80;1.00;;;;;;;7.34;100.00;102950.38;5024490;28;20176;-72
2024/02/17 06:28:54;;;;;;;6.03;1.20;;;;;;;6.97;100.00;102964.06;5021383;28;20443;-71
2024/02/17 06:31:21;;;;;;;8.50;0.83;;;;;;;7.01;100.00;102981.53;5027591;28;20426;-71
2024/02/17 06:33:47;;;;;;;7.40;1.07;;;;;;;6.82;100.00;102943.94;5027996;28;20446;-72
2024/02/17 06:36:12;;;;;;;5.70;1.00;;;;;;;6.25;100.00;102854.28;5023701;28;20945;-71
2024/02/17 06:38:38;;;;;;;6.23;0.80;;;;;;;6.81;100.00;102978.75;5028688;28;21166;-71
2024/02/17 06:41:03;;;;;;;5.37;0.80;;;;;;;6.54;100.00;102940.81;5030424;28;20281;-72
2024/02/17 06:43:32;;;;;;;6.37;0.90;;;;;;;6.76;100.00;102993.28;5025729;28;20283;-72
2024/02/17 06:46:01;;;;;;;9.70;0.90;;;;;;;6.72;100.00;103002.50;5024921;28;20663;-72
2024/02/17 06:48:27;;;;;;;6.07;1.00;;;;;;;6.70;100.00;103014.25;5025529;28;20466;-71
2024/02/17 06:50:53;;;;;;;7.30;1.10;;;;;;;6.73;100.00;103008.69;5025107;28;20447;-72
2024/02/17 06:53:19;;;;;;;11.90;1.00;;;;;;;6.53;100.00;102983.56;5021781;28;20192;-71
2024/02/17 06:55:45;;;;;;;13.00;2.63;;;;;;;6.73;100.00;103017.53;5020732;28;20438;-72
2024/02/17 06:58:10;;;;;;;9.97;2.27;;;;;;;6.66;100.00;103023.47;5025450;28;20735;-71
2024/02/17 07:00:36;;;;;;;10.47;1.87;;;;;;;6.28;100.00;102937.53;5024116;28;20482;-71
2024/02/17 07:03:04;;;;;;;7.10;1.13;;;;;;;6.77;100.00;103024.34;5026315;28;20292;-72
2024/02/17 07:05:29;;;;;;;7.03;1.93;;;;;;;6.57;100.00;103020.56;5029766;28;20940;-72
2024/02/17 07:07:55;;;;;;;9.87;1.60;;;;;;;6.21;100.00;102959.41;5030570;28;20462;-72
2024/02/17 07:10:20;;;;;;;6.40;1.23;;;;;;;6.31;100.00;102957.75;5027677;28;20738;-71
2024/02/17 07:12:46;;;;;;;8.23;1.40;;;;;;;6.19;100.00;102964.00;5026129;28;20218;-71
2024/02/17 07:15:11;;;;;;;9.17;1.63;;;;;;;6.70;100.00;103025.78;5029051;28;20192;-71
2024/02/17 07:17:36;;;;;;;10.40;0.90;;;;;;;6.09;100.00;102934.56;5027434;28;20195;-71
2024/02/17 07:20:04;;;;;;;7.53;1.00;;;;;;;6.23;100.00;102992.97;5027802;28;20226;-72
2024/02/17 07:22:29;;;;;;;6.60;1.00;;;;;;;6.55;100.00;103017.16;5032041;28;20251;-71
2024/02/17 07:24:54;;;;;;;6.50;0.90;;;;;;;6.31;100.00;103003.91;5028839;28;20454;-71
2024/02/17 07:27:20;;;;;;;8.00;1.20;;;;;;;6.34;100.00;102993.00;5032236;28;20187;-72
2024/02/17 07:29:46;;;;;;;5.60;1.27;;;;;;;6.67;100.00;103049.16;5034375;28;20215;-72
2024/02/17 07:32:12;;;;;;;8.77;1.50;;;;;;;6.01;100.00;102940.47;5030395;28;20184;-72
2024/02/17 07:34:39;;;;;;;8.40;2.40;;;;;;;6.73;100.00;103051.34;5033159;28;20192;-71
2024/02/17 07:37:05;;;;;;;7.60;1.77;;;;;;;6.50;100.00;103048.66;5027894;28;20503;-71
2024/02/17 07:39:30;;;;;;;10.13;1.60;;;;;;;6.62;100.00;103065.50;5026870;28;20478;-72
2024/02/17 07:41:55;;;;;;;10.17;1.87;;;;;;;6.71;100.00;103069.28;5020334;28;20200;-71
2024/02/17 07:44:23;;;;;;;8.30;1.30;;;;;;;6.64;100.00;103058.25;5025747;28;20188;-71
2024/02/17 07:46:49;;;;;;;8.73;1.67;;;;;;;6.77;100.00;103085.69;5028437;28;20196;-70
2024/02/17 07:49:17;;;;;;;6.83;1.27;;;;;;;6.74;100.00;103088.59;5029204;28;20822;-71
2024/02/17 07:51:45;;;;;;;7.47;1.53;;;;;;;6.25;100.00;103009.72;5030973;28;21055;-71
2024/02/17 07:54:11;;;;;;;8.00;1.40;;;;;;;6.77;100.00;103098.19;5034773;28;20442;-71
2024/02/17 07:56:36;;;;;;;9.50;2.40;;;;;;;6.52;100.00;103076.06;5024312;28;20447;-71
2024/02/17 07:59:03;;;;;;;8.30;1.47;;;;;;;6.48;100.00;103074.59;5027659;28;20946;-71
2024/02/17 08:01:28;;;;;;;7.10;1.20;;;;;;;6.17;100.00;103017.44;5029639;28;20233;-72
2024/02/17 08:03:55;;;;;;;10.07;1.63;;;;;;;6.77;100.00;103088.34;5042908;28;20636;-71
2024/02/17 08:06:20;;;;;;;7.40;1.23;;;;;;;6.93;100.00;103121.84;5049383;28;20188;-71
2024/02/17 08:08:49;;;;;;;8.53;1.80;;;;;;;7.11;100.00;103120.41;5033038;28;20812;-72
2024/02/17 08:11:15;;;;;;;10.77;1.47;;;;;;;7.04;100.00;103115.69;5036289;28;20200;-73
2024/02/17 08:13:42;;;;;;;8.83;1.53;;;;;;;6.37;100.00;103031.91;5030093;28;20964;-72
2024/02/17 08:16:08;;;;;;;10.57;2.10;;;;;;;6.94;100.00;103131.53;5031166;28;21137;-72
2024/02/17 08:18:34;;;;;;;8.97;1.70;;;;;;;6.94;100.00;103121.75;5028336;28;20454;-73
2024/02/17 08:21:02;;;;;;;10.17;1.60;;;;;;;6.99;100.00;103105.34;5029301;28;20497;-72
2024/02/17 08:23:28;;;;;;;9.97;1.30;;;;;;;7.10;100.00;103153.41;5046959;28;20254;-72
2024/02/17 08:25:58;;;;;;;10.07;1.57;;;;;;;7.09;100.00;103111.69;5027772;28;20589;-73
2024/02/17 08:28:23;;;;;;;9.77;1.50;;;;;;;7.26;100.00;103161.03;5024996;28;20455;-72
2024/02/17 08:30:49;;;;;;;10.37;1.50;;;;;;;7.17;100.00;103125.25;5023356;28;20462;-72
2024/02/17 08:33:15;;;;;;;15.30;1.80;;;;;;;7.27;100.00;103173.44;5028048;28;20231;-72
2024/02/17 08:35:41;;;;;;;12.00;1.50;;;;;;;7.20;100.00;103174.88;5029898;28;20438;-72
2024/02/17 08:38:07;;;;;;;8.40;1.40;;;;;;;7.33;100.00;103162.28;5025114;28;20571;-72
2024/02/17 08:40:33;;;;;;;10.30;1.70;;;;;;;6.87;100.00;103075.13;5027601;28;20291;-73
2024/02/17 08:42:59;;;;;;;10.57;1.87;;;;;;;7.36;100.00;103170.03;5031724;28;20452;-73
2024/02/17 08:45:25;;;;;;;10.33;1.53;;;;;;;7.02;100.00;103063.25;5032748;28;20191;-73
2024/02/17 08:47:50;;;;;;;11.20;1.80;;;;;;;7.49;100.00;103159.22;5028087;28;20477;-73
2024/02/17 08:50:18;;;;;;;9.53;1.57;;;;;;;7.16;100.00;103112.03;5030742;28;20211;-73
2024/02/17 08:52:43;;;;;;;8.37;1.07;;;;;;;7.52;100.00;103191.06;5027328;28;20248;-73
2024/02/17 08:55:09;;;;;;;15.67;1.97;;;;;;;6.33;100.00;103035.75;5030077;28;20447;-72
2024/02/17 08:57:36;;;;;;;9.63;1.63;;;;;;;7.07;100.00;103183.00;5026393;28;20342;-72
2024/02/17 09:00:03;;;;;;;9.50;1.40;;;;;;;6.97;100.00;103104.63;5029195;28;20325;-72
2024/02/17 09:02:28;;;;;;;7.40;1.50;;;;;;;7.06;100.00;103127.06;5029870;28;20471;-73
2024/02/17 09:04:54;;;;;;;14.93;1.70;;;;;;;7.76;100.00;103206.97;5028340;28;20443;-74
2024/02/17 09:07:19;;;;;;;12.80;2.73;;;;;;;7.35;100.00;103154.16;5024060;28;20188;-71
2024/02/17 09:09:50;;;;;;;16.87;2.00;;;;;;;7.61;100.00;103187.66;5030180;28;20707;-72
2024/02/17 09:12:15;;;;;;;11.00;2.03;;;;;;;7.61;100.00;103176.97;5027826;28;20647;-73
2024/02/17 09:14:41;;;;;;;10.43;2.03;;;;;;;7.12;100.00;103083.91;5028745;28;20600;-73
2024/02/17 09:17:06;;;;;;;10.40;2.63;;;;;;;7.26;100.00;103105.00;5029708;28;20199;-73
2024/02/17 09:19:32;;;;;;;12.73;1.60;;;;;;;7.35;100.00;103147.00;5030077;28;20223;-73
2024/02/17 09:21:57;;;;;;;12.37;1.70;;;;;;;7.54;100.00;103188.25;5041267;28;20474;-72
2024/02/17 09:24:25;;;;;;;13.63;2.03;;;;;;;7.72;100.00;103216.16;5045265;28;20192;-73
2024/02/17 09:26:50;;;;;;;9.50;1.70;;;;;;;7.97;100.00;103203.53;5043832;28;20710;-73
2024/02/17 09:29:16;;;;;;;9.60;1.83;;;;;;;7.74;100.00;103182.19;5023284;28;20467;-74
2024/02/17 09:31:42;;;;;;;13.80;1.77;;;;;;;7.24;100.00;103136.31;5030529;28;20286;-72
2024/02/17 09:34:07;;;;;;;14.00;1.90;;;;;;;7.90;100.00;103246.78;5026665;28;20223;-73
2024/02/17 09:36:33;;;;;;;13.77;2.00;;;;;;;7.60;100.00;103193.09;5028097;28;20203;-73
2024/02/17 09:38:58;;;;;;;8.77;1.47;;;;;;;8.15;100.00;103268.88;5031866;28;20203;-73
2024/02/17 09:41:24;;;;;;;9.60;1.63;;;;;;;7.50;100.00;103173.47;5045891;28;20188;-73
2024/02/17 09:43:49;;;;;;;6.57;1.40;;;;;;;8.09;100.00;103282.72;5030532;28;20188;-73
2024/02/17 09:46:17;;;;;;;7.80;1.23;;;;;;;7.96;100.00;103271.34;5030425;28;20271;-74
2024/02/17 09:48:43;;;;;;;14.40;1.93;;;;;;;8.02;100.00;103294.91;5030586;28;20192;-73
2024/02/17 09:51:09;;;;;;;11.50;1.60;;;;;;;8.18;100.00;103302.53;5031675;28;20817;-73
2024/02/17 09:53:38;;;;;;;14.97;2.43;;;;;;;7.88;100.00;103264.75;5048109;28;20443;-73
2024/02/17 09:56:05;;;;;;;10.93;1.83;;;;;;;7.38;100.00;103213.50;5028822;28;20184;-73
2024/02/17 09:58:30;;;;;;;14.60;2.90;;;;;;;8.11;100.00;103337.78;5030155;28;20514;-73
2024/02/17 10:00:57;;;;;;;13.30;2.73;;;;;;;8.06;100.00;103336.44;5031959;28;20496;-73
2024/02/17 10:03:24;;;;;;;16.67;2.23;;;;;;;7.82;100.00;103336.53;5024114;28;20185;-73
2024/02/17 10:05:49;;;;;;;11.67;1.87;;;;;;;7.79;100.00;103305.56;5027460;28;20442;-74
2024/02/17 10:08:15;;;;;;;11.50;2.23;;;;;;;7.95;100.00;103344.44;5023649;28;20952;-73
2024/02/17 10:10:43;;;;;;;11.70;1.87;;;;;;;7.88;100.00;103285.28;5027006;28;20252;-73
2024/02/17 10:13:16;;;;;;;11.50;2.23;;;;;;;8.12;100.00;103295.84;5026185;28;20196;-72
2024/02/17 10:15:42;;;;;;;14.07;2.83;;;;;;;8.24;100.00;103355.50;5031164;28;20414;-72
2024/02/17 10:18:07;;;;;;;9.30;1.97;;;;;;;8.45;100.00;103358.34;5029945;28;20833;-72
2024/02/17 10:20:33;;;;;;;9.60;2.40;;;;;;;8.25;100.00;103328.66;5031046;28;20227;-73
2024/02/17 10:22:58;;;;;;;13.20;2.33;;;;;;;8.56;100.00;103367.22;5029147;28;20565;-72
2024/02/17 10:25:24;;;;;;;13.97;1.77;;;;;;;7.62;100.00;103256.13;5035029;28;20575;-73
2024/02/17 10:27:50;;;;;;;12.83;2.40;;;;;;;7.75;100.00;103303.25;5025780;28;20647;-73
2024/02/17 10:30:17;;;;;;;10.00;2.00;;;;;;;7.96;100.00;103333.66;5049652;23;20561;-76
2024/02/17 10:32:43;;;;;;;14.63;2.00;;;;;;;8.16;100.00;103345.44;5012066;28;20196;-75
2024/02/17 10:35:10;;;;;;;10.27;2.07;;;;;;;8.51;100.00;103376.56;5034791;28;20459;-76
2024/02/17 10:37:38;;;;;;;13.93;2.10;;;;;;;8.11;100.00;103375.19;5020274;28;20454;-77
2024/02/17 10:40:05;;;;;;;10.37;1.40;;;;;;;7.90;100.00;103345.66;5006276;28;20842;-76
2024/02/17 10:42:33;;;;;;;12.13;2.50;;;;;;;7.13;100.00;103181.66;5010933;28;20443;-74
2024/02/17 10:45:02;;;;;;;11.40;1.90;;;;;;;8.35;100.00;103399.13;5005792;28;20443;-75
2024/02/17 10:47:37;;;;;;;10.13;2.50;;;;;;;7.95;100.00;103381.84;4999387;28;20490;-78
2024/02/17 10:50:16;;;;;;;12.00;2.10;;;;;;;7.05;100.00;103200.94;5023502;28;20590;-76
2024/02/17 10:52:44;;;;;;;14.10;2.17;;;;;;;8.58;100.00;103466.06;5007974;28;20438;-77
2024/02/17 10:55:12;;;;;;;13.90;2.10;;;;;;;7.90;100.00;103343.00;5009214;28;20444;-76
2024/02/17 10:57:48;;;;;;;12.60;2.47;;;;;;;8.52;100.00;103434.44;5001145;28;21118;-77
2024/02/17 11:00:15;;;;;;;12.87;2.10;;;;;;;8.48;100.00;103481.13;5020032;28;20570;-75
2024/02/17 11:02:42;;;;;;;12.00;1.90;;;;;;;8.77;100.00;103478.84;5006528;28;20467;-76
2024/02/17 11:05:08;;;;;;;9.73;1.50;;;;;;;8.34;100.00;103517.78;5008759;28;20440;-76
2024/02/17 11:07:35;;;;;;;10.83;1.60;;;;;;;8.62;100.00;103496.97;5006833;28;20981;-75
2024/02/17 11:10:05;;;;;;;11.40;1.40;;;;;;;8.97;100.00;103486.13;5007324;28;20462;-78
2024/02/17 11:12:33;;;;;;;11.47;2.00;;;;;;;9.10;100.00;103512.75;5021083;28;20775;-78
2024/02/17 11:15:11;;;;;;;14.60;1.80;;;;;;;8.99;100.00;103535.00;5001134;28;20451;-76
2024/02/17 11:17:38;;;;;;;9.70;1.23;;;;;;;9.05;100.00;103528.31;5006786;28;20959;-76
2024/02/17 11:20:06;;;;;;;9.53;1.60;;;;;;;9.19;100.00;103544.13;5000827;28;20901;-77